Yale, Virginia
Current Conditions -  °F | °C
As of 8:55 AM on Monday 22 Dec 2014 (Local Time) from KEMV Reporting Station
Unknown Precip Unknown Precip  
Wind Chill: 30°   Ceiling: 700
Heat Index: 36°   Visibility: 3mi
Dew Point: 34°   Wind: 7mph
Humidity: 93%   Direction: 340°NNW
Pressure: 30.22"   Gusts: NA
Location:  36.85°N, 77.29°W
Report Text: KEMV 221355Z AUTO 34006KT 3SM UP OVC007 02/01 A3022 RMK AO2 P0005
Loading
Personal Weather Stations






























Interactive Weather Map New forecast layout! Learn more

10-Day Weather Forecast

Advertisements
Track Severe Weather on mobile